sensor_id;sensor_type;location;lat;lon;timestamp;P1;durP1;ratioP1;P2;durP2;ratioP2
41653;SDS011;30790;52.030;7.110;2023-02-01T00:00:03;3.83;;;1.75;;
41653;SDS011;30790;52.030;7.110;2023-02-01T00:02:29;2.80;;;1.80;;
41653;SDS011;30790;52.030;7.110;2023-02-01T00:04:54;3.53;;;1.90;;
41653;SDS011;30790;52.030;7.110;2023-02-01T00:07:20;2.50;;;1.38;;
41653;SDS011;30790;52.030;7.110;2023-02-01T00:09:45;5.55;;;1.75;;
41653;SDS011;30790;52.030;7.110;2023-02-01T00:12:10;5.10;;;1.88;;
41653;SDS011;30790;52.030;7.110;2023-02-01T00:14:36;2.80;;;1.63;;
41653;SDS011;30790;52.030;7.110;2023-02-01T00:17:04;3.30;;;1.90;;
41653;SDS011;30790;52.030;7.110;2023-02-01T00:19:32;4.10;;;1.73;;
41653;SDS011;30790;52.030;7.110;2023-02-01T00:21:58;4.80;;;1.80;;
41653;SDS011;30790;52.030;7.110;2023-02-01T00:24:24;4.18;;;1.90;;
41653;SDS011;30790;52.030;7.110;2023-02-01T00:26:49;5.82;;;2.00;;
41653;SDS011;30790;52.030;7.110;2023-02-01T00:29:15;3.10;;;1.63;;
41653;SDS011;30790;52.030;7.110;2023-02-01T00:31:42;4.65;;;2.00;;
41653;SDS011;30790;52.030;7.110;2023-02-01T00:34:12;3.10;;;2.03;;
41653;SDS011;30790;52.030;7.110;2023-02-01T00:36:40;4.28;;;2.03;;
41653;SDS011;30790;52.030;7.110;2023-02-01T00:39:05;4.32;;;1.90;;
41653;SDS011;30790;52.030;7.110;2023-02-01T00:41:31;5.50;;;2.05;;
41653;SDS011;30790;52.030;7.110;2023-02-01T00:43:56;3.08;;;1.77;;
41653;SDS011;30790;52.030;7.110;2023-02-01T00:46:22;3.85;;;1.60;;
41653;SDS011;30790;52.030;7.110;2023-02-01T00:48:47;4.15;;;1.85;;
41653;SDS011;30790;52.030;7.110;2023-02-01T00:51:14;4.53;;;1.80;;
41653;SDS011;30790;52.030;7.110;2023-02-01T00:53:41;3.53;;;1.65;;
41653;SDS011;30790;52.030;7.110;2023-02-01T00:56:07;2.35;;;1.42;;
41653;SDS011;30790;52.030;7.110;2023-02-01T00:58:33;2.45;;;1.40;;
41653;SDS011;30790;52.030;7.110;2023-02-01T01:01:05;4.10;;;1.83;;
41653;SDS011;30790;52.030;7.110;2023-02-01T01:03:33;4.68;;;1.50;;
41653;SDS011;30790;52.030;7.110;2023-02-01T01:06:00;2.67;;;1.58;;
41653;SDS011;30790;52.030;7.110;2023-02-01T01:08:28;2.80;;;1.63;;
41653;SDS011;30790;52.030;7.110;2023-02-01T01:10:54;5.53;;;1.98;;
41653;SDS011;30790;52.030;7.110;2023-02-01T01:13:19;3.65;;;1.83;;
41653;SDS011;30790;52.030;7.110;2023-02-01T01:15:45;3.60;;;1.63;;
41653;SDS011;30790;52.030;7.110;2023-02-01T01:18:10;3.97;;;1.75;;
41653;SDS011;30790;52.030;7.110;2023-02-01T01:20:36;2.83;;;1.50;;
41653;SDS011;30790;52.030;7.110;2023-02-01T01:23:03;2.88;;;1.60;;
41653;SDS011;30790;52.030;7.110;2023-02-01T01:25:28;1.92;;;1.30;;
41653;SDS011;30790;52.030;7.110;2023-02-01T01:27:53;2.92;;;1.42;;
41653;SDS011;30790;52.030;7.110;2023-02-01T01:30:19;1.63;;;1.23;;
41653;SDS011;30790;52.030;7.110;2023-02-01T01:32:44;3.08;;;1.73;;
41653;SDS011;30790;52.030;7.110;2023-02-01T01:35:09;3.42;;;1.33;;
41653;SDS011;30790;52.030;7.110;2023-02-01T01:37:35;3.65;;;1.45;;
41653;SDS011;30790;52.030;7.110;2023-02-01T01:40:01;2.90;;;1.52;;
41653;SDS011;30790;52.030;7.110;2023-02-01T01:42:27;3.03;;;1.70;;
41653;SDS011;30790;52.030;7.110;2023-02-01T01:45:00;3.72;;;1.98;;
41653;SDS011;30790;52.030;7.110;2023-02-01T01:47:31;3.90;;;1.70;;
41653;SDS011;30790;52.030;7.110;2023-02-01T01:50:02;3.53;;;1.52;;
41653;SDS011;30790;52.030;7.110;2023-02-01T01:52:31;2.67;;;1.80;;
41653;SDS011;30790;52.030;7.110;2023-02-01T01:54:57;2.03;;;1.58;;
41653;SDS011;30790;52.030;7.110;2023-02-01T01:57:27;2.63;;;1.50;;
41653;SDS011;30790;52.030;7.110;2023-02-01T01:59:59;4.88;;;1.83;;
41653;SDS011;30790;52.030;7.110;2023-02-01T02:02:30;2.85;;;1.58;;
41653;SDS011;30790;52.030;7.110;2023-02-01T02:04:55;3.63;;;1.73;;
41653;SDS011;30790;52.030;7.110;2023-02-01T02:07:22;2.22;;;1.40;;
41653;SDS011;30790;52.030;7.110;2023-02-01T02:09:51;5.82;;;1.60;;
41653;SDS011;30790;52.030;7.110;2023-02-01T02:12:17;3.50;;;1.95;;
41653;SDS011;30790;52.030;7.110;2023-02-01T02:14:42;3.60;;;1.48;;
41653;SDS011;30790;52.030;7.110;2023-02-01T02:17:21;5.32;;;1.40;;
41653;SDS011;30790;52.030;7.110;2023-02-01T02:41:33;3.15;;;1.70;;
41653;SDS011;30790;52.030;7.110;2023-02-01T02:44:32;3.63;;;1.50;;
41653;SDS011;30790;52.030;7.110;2023-02-01T02:47:24;2.88;;;1.55;;
41653;SDS011;30790;52.030;7.110;2023-02-01T02:49:58;3.20;;;1.40;;
41653;SDS011;30790;52.030;7.110;2023-02-01T02:53:14;3.25;;;1.73;;
41653;SDS011;30790;52.030;7.110;2023-02-01T02:56:02;3.08;;;1.17;;
41653;SDS011;30790;52.030;7.110;2023-02-01T02:58:48;3.80;;;1.52;;
41653;SDS011;30790;52.030;7.110;2023-02-01T03:01:33;4.18;;;1.58;;
41653;SDS011;30790;52.030;7.110;2023-02-01T03:04:18;2.67;;;1.30;;
41653;SDS011;30790;52.030;7.110;2023-02-01T03:06:44;3.05;;;1.40;;
41653;SDS011;30790;52.030;7.110;2023-02-01T03:09:16;3.10;;;1.40;;
41653;SDS011;30790;52.030;7.110;2023-02-01T03:11:56;2.80;;;1.42;;
41653;SDS011;30790;52.030;7.110;2023-02-01T03:14:46;3.67;;;1.80;;
41653;SDS011;30790;52.030;7.110;2023-02-01T03:17:15;2.22;;;1.27;;
41653;SDS011;30790;52.030;7.110;2023-02-01T03:19:46;3.33;;;1.73;;
41653;SDS011;30790;52.030;7.110;2023-02-01T03:22:20;6.25;;;1.60;;
41653;SDS011;30790;52.030;7.110;2023-02-01T03:24:51;4.03;;;1.67;;
41653;SDS011;30790;52.030;7.110;2023-02-01T03:27:33;3.47;;;1.63;;
41653;SDS011;30790;52.030;7.110;2023-02-01T03:32:59;2.67;;;1.30;;
41653;SDS011;30790;52.030;7.110;2023-02-01T03:35:37;4.20;;;1.60;;
41653;SDS011;30790;52.030;7.110;2023-02-01T03:40:45;3.20;;;1.45;;
41653;SDS011;30790;52.030;7.110;2023-02-01T03:43:14;2.55;;;1.40;;
41653;SDS011;30790;52.030;7.110;2023-02-01T03:45:44;2.10;;;1.02;;
41653;SDS011;30790;52.030;7.110;2023-02-01T03:48:14;3.72;;;1.52;;
41653;SDS011;30790;52.030;7.110;2023-02-01T03:50:44;2.15;;;1.33;;
41653;SDS011;30790;52.030;7.110;2023-02-01T03:53:16;2.38;;;1.35;;
41653;SDS011;30790;52.030;7.110;2023-02-01T03:55:44;3.13;;;1.33;;
41653;SDS011;30790;52.030;7.110;2023-02-01T03:58:17;3.22;;;1.55;;
41653;SDS011;30790;52.030;7.110;2023-02-01T04:00:46;2.10;;;1.10;;
41653;SDS011;30790;52.030;7.110;2023-02-01T04:03:16;3.28;;;1.65;;
41653;SDS011;30790;52.030;7.110;2023-02-01T04:05:41;3.53;;;1.80;;
41653;SDS011;30790;52.030;7.110;2023-02-01T04:08:06;3.05;;;1.42;;
41653;SDS011;30790;52.030;7.110;2023-02-01T04:10:32;4.40;;;1.45;;
41653;SDS011;30790;52.030;7.110;2023-02-01T04:12:57;1.25;;;1.00;;
41653;SDS011;30790;52.030;7.110;2023-02-01T04:15:23;1.98;;;1.30;;
41653;SDS011;30790;52.030;7.110;2023-02-01T04:17:49;2.92;;;1.40;;
41653;SDS011;30790;52.030;7.110;2023-02-01T04:20:14;2.37;;;1.20;;
41653;SDS011;30790;52.030;7.110;2023-02-01T04:22:39;2.00;;;1.25;;
41653;SDS011;30790;52.030;7.110;2023-02-01T04:25:05;2.45;;;1.58;;
41653;SDS011;30790;52.030;7.110;2023-02-01T04:27:31;2.55;;;1.33;;
41653;SDS011;30790;52.030;7.110;2023-02-01T04:29:56;2.60;;;1.40;;
41653;SDS011;30790;52.030;7.110;2023-02-01T04:32:21;2.50;;;1.35;;
41653;SDS011;30790;52.030;7.110;2023-02-01T04:34:47;2.83;;;1.50;;
41653;SDS011;30790;52.030;7.110;2023-02-01T04:37:12;2.88;;;1.33;;
41653;SDS011;30790;52.030;7.110;2023-02-01T04:39:37;2.83;;;1.13;;
41653;SDS011;30790;52.030;7.110;2023-02-01T04:42:02;3.00;;;1.35;;
41653;SDS011;30790;52.030;7.110;2023-02-01T04:44:28;2.20;;;1.15;;
41653;SDS011;30790;52.030;7.110;2023-02-01T04:46:54;3.88;;;1.35;;
41653;SDS011;30790;52.030;7.110;2023-02-01T04:49:19;2.30;;;1.30;;
41653;SDS011;30790;52.030;7.110;2023-02-01T04:51:46;2.70;;;1.45;;
41653;SDS011;30790;52.030;7.110;2023-02-01T04:54:11;3.53;;;1.63;;
41653;SDS011;30790;52.030;7.110;2023-02-01T04:56:37;3.10;;;1.17;;
41653;SDS011;30790;52.030;7.110;2023-02-01T04:59:03;2.45;;;1.17;;
41653;SDS011;30790;52.030;7.110;2023-02-01T05:01:28;3.47;;;1.55;;
41653;SDS011;30790;52.030;7.110;2023-02-01T05:03:54;1.88;;;1.38;;
41653;SDS011;30790;52.030;7.110;2023-02-01T05:06:19;2.38;;;1.13;;
41653;SDS011;30790;52.030;7.110;2023-02-01T05:08:45;3.13;;;1.45;;
41653;SDS011;30790;52.030;7.110;2023-02-01T05:11:10;3.83;;;1.55;;
41653;SDS011;30790;52.030;7.110;2023-02-01T05:13:54;2.95;;;1.52;;
41653;SDS011;30790;52.030;7.110;2023-02-01T05:16:19;3.63;;;1.25;;
41653;SDS011;30790;52.030;7.110;2023-02-01T05:18:45;2.50;;;1.30;;
41653;SDS011;30790;52.030;7.110;2023-02-01T05:21:10;3.72;;;1.33;;
41653;SDS011;30790;52.030;7.110;2023-02-01T05:23:35;2.00;;;1.27;;
41653;SDS011;30790;52.030;7.110;2023-02-01T05:26:21;1.70;;;1.10;;
41653;SDS011;30790;52.030;7.110;2023-02-01T05:28:46;2.60;;;1.20;;
41653;SDS011;30790;52.030;7.110;2023-02-01T05:31:11;2.72;;;1.40;;
41653;SDS011;30790;52.030;7.110;2023-02-01T05:33:37;2.40;;;1.38;;
41653;SDS011;30790;52.030;7.110;2023-02-01T05:36:02;2.63;;;1.40;;
41653;SDS011;30790;52.030;7.110;2023-02-01T05:38:28;1.65;;;1.13;;
41653;SDS011;30790;52.030;7.110;2023-02-01T05:40:54;2.97;;;1.45;;
41653;SDS011;30790;52.030;7.110;2023-02-01T05:43:20;3.60;;;1.45;;
41653;SDS011;30790;52.030;7.110;2023-02-01T05:45:45;1.92;;;1.10;;
41653;SDS011;30790;52.030;7.110;2023-02-01T05:48:10;3.05;;;1.13;;
41653;SDS011;30790;52.030;7.110;2023-02-01T05:50:36;2.83;;;1.40;;
41653;SDS011;30790;52.030;7.110;2023-02-01T05:53:01;2.85;;;1.35;;
41653;SDS011;30790;52.030;7.110;2023-02-01T05:55:26;2.05;;;1.42;;
41653;SDS011;30790;52.030;7.110;2023-02-01T05:57:51;3.60;;;1.95;;
41653;SDS011;30790;52.030;7.110;2023-02-01T06:00:17;1.88;;;1.10;;
41653;SDS011;30790;52.030;7.110;2023-02-01T06:02:43;6.32;;;1.33;;
41653;SDS011;30790;52.030;7.110;2023-02-01T06:05:08;3.90;;;1.75;;
41653;SDS011;30790;52.030;7.110;2023-02-01T06:07:33;4.72;;;2.03;;
41653;SDS011;30790;52.030;7.110;2023-02-01T06:09:59;5.18;;;1.40;;
41653;SDS011;30790;52.030;7.110;2023-02-01T06:12:24;3.08;;;1.40;;
41653;SDS011;30790;52.030;7.110;2023-02-01T06:14:49;1.85;;;1.35;;
41653;SDS011;30790;52.030;7.110;2023-02-01T06:17:15;2.85;;;1.58;;
41653;SDS011;30790;52.030;7.110;2023-02-01T06:19:40;1.77;;;1.13;;
41653;SDS011;30790;52.030;7.110;2023-02-01T06:22:05;3.13;;;1.13;;
41653;SDS011;30790;52.030;7.110;2023-02-01T06:24:31;2.75;;;1.20;;
41653;SDS011;30790;52.030;7.110;2023-02-01T06:26:56;4.60;;;1.40;;
41653;SDS011;30790;52.030;7.110;2023-02-01T06:29:21;2.65;;;1.30;;
41653;SDS011;30790;52.030;7.110;2023-02-01T06:31:47;2.33;;;1.13;;
41653;SDS011;30790;52.030;7.110;2023-02-01T06:34:12;2.72;;;1.02;;
41653;SDS011;30790;52.030;7.110;2023-02-01T06:36:37;1.63;;;0.90;;
41653;SDS011;30790;52.030;7.110;2023-02-01T06:39:03;5.32;;;1.45;;
41653;SDS011;30790;52.030;7.110;2023-02-01T06:41:28;4.45;;;1.25;;
41653;SDS011;30790;52.030;7.110;2023-02-01T06:43:54;2.05;;;1.23;;
41653;SDS011;30790;52.030;7.110;2023-02-01T06:46:19;2.95;;;1.30;;
41653;SDS011;30790;52.030;7.110;2023-02-01T06:48:45;1.92;;;1.33;;
41653;SDS011;30790;52.030;7.110;2023-02-01T06:51:26;2.50;;;1.50;;
41653;SDS011;30790;52.030;7.110;2023-02-01T06:53:53;2.97;;;1.17;;
41653;SDS011;30790;52.030;7.110;2023-02-01T06:56:18;2.08;;;1.00;;
41653;SDS011;30790;52.030;7.110;2023-02-01T06:58:44;3.42;;;1.45;;
41653;SDS011;30790;52.030;7.110;2023-02-01T07:01:09;3.03;;;1.23;;
41653;SDS011;30790;52.030;7.110;2023-02-01T07:03:36;2.67;;;1.42;;
41653;SDS011;30790;52.030;7.110;2023-02-01T07:06:01;4.80;;;1.45;;
41653;SDS011;30790;52.030;7.110;2023-02-01T07:08:27;1.38;;;1.13;;
41653;SDS011;30790;52.030;7.110;2023-02-01T07:10:53;4.20;;;1.35;;
41653;SDS011;30790;52.030;7.110;2023-02-01T07:13:18;5.07;;;1.33;;
41653;SDS011;30790;52.030;7.110;2023-02-01T07:15:44;2.30;;;1.40;;
41653;SDS011;30790;52.030;7.110;2023-02-01T07:18:11;1.85;;;1.17;;
41653;SDS011;30790;52.030;7.110;2023-02-01T07:20:39;6.28;;;1.60;;
41653;SDS011;30790;52.030;7.110;2023-02-01T07:23:04;2.05;;;1.10;;
41653;SDS011;30790;52.030;7.110;2023-02-01T07:25:29;2.75;;;1.35;;
41653;SDS011;30790;52.030;7.110;2023-02-01T07:27:54;2.77;;;1.20;;
41653;SDS011;30790;52.030;7.110;2023-02-01T07:30:20;3.00;;;1.23;;
41653;SDS011;30790;52.030;7.110;2023-02-01T07:32:45;1.85;;;1.30;;
41653;SDS011;30790;52.030;7.110;2023-02-01T07:35:10;3.70;;;1.50;;
41653;SDS011;30790;52.030;7.110;2023-02-01T07:37:36;3.17;;;1.40;;
41653;SDS011;30790;52.030;7.110;2023-02-01T07:40:01;5.30;;;1.70;;
41653;SDS011;30790;52.030;7.110;2023-02-01T07:42:27;4.78;;;1.40;;
41653;SDS011;30790;52.030;7.110;2023-02-01T07:44:52;2.93;;;1.40;;
41653;SDS011;30790;52.030;7.110;2023-02-01T07:47:17;8.33;;;1.70;;
41653;SDS011;30790;52.030;7.110;2023-02-01T07:49:42;16.17;;;1.50;;
41653;SDS011;30790;52.030;7.110;2023-02-01T07:52:08;4.93;;;1.15;;
41653;SDS011;30790;52.030;7.110;2023-02-01T07:54:33;6.28;;;1.30;;
41653;SDS011;30790;52.030;7.110;2023-02-01T07:56:58;6.10;;;1.23;;
41653;SDS011;30790;52.030;7.110;2023-02-01T07:59:23;5.20;;;1.80;;
41653;SDS011;30790;52.030;7.110;2023-02-01T08:01:49;4.10;;;1.50;;
41653;SDS011;30790;52.030;7.110;2023-02-01T08:04:14;5.40;;;1.50;;
41653;SDS011;30790;52.030;7.110;2023-02-01T08:06:39;4.30;;;1.63;;
41653;SDS011;30790;52.030;7.110;2023-02-01T08:09:05;9.80;;;1.88;;
41653;SDS011;30790;52.030;7.110;2023-02-01T08:11:33;6.22;;;1.38;;
41653;SDS011;30790;52.030;7.110;2023-02-01T08:13:59;3.85;;;1.38;;
41653;SDS011;30790;52.030;7.110;2023-02-01T08:16:25;11.52;;;1.88;;
41653;SDS011;30790;52.030;7.110;2023-02-01T08:18:51;6.10;;;1.70;;
41653;SDS011;30790;52.030;7.110;2023-02-01T08:21:17;6.68;;;1.90;;
41653;SDS011;30790;52.030;7.110;2023-02-01T08:23:45;13.35;;;2.08;;
41653;SDS011;30790;52.030;7.110;2023-02-01T08:26:12;10.77;;;1.90;;
41653;SDS011;30790;52.030;7.110;2023-02-01T08:28:47;12.18;;;2.13;;
41653;SDS011;30790;52.030;7.110;2023-02-01T08:31:24;12.57;;;2.20;;
41653;SDS011;30790;52.030;7.110;2023-02-01T08:33:53;7.05;;;2.00;;
41653;SDS011;30790;52.030;7.110;2023-02-01T08:36:21;13.07;;;2.05;;
41653;SDS011;30790;52.030;7.110;2023-02-01T08:38:48;7.95;;;1.70;;
41653;SDS011;30790;52.030;7.110;2023-02-01T08:41:15;13.00;;;2.35;;
41653;SDS011;30790;52.030;7.110;2023-02-01T08:43:43;7.45;;;2.28;;
41653;SDS011;30790;52.030;7.110;2023-02-01T08:46:09;8.05;;;1.90;;
41653;SDS011;30790;52.030;7.110;2023-02-01T08:48:35;11.50;;;2.20;;
41653;SDS011;30790;52.030;7.110;2023-02-01T08:51:01;8.70;;;2.17;;
41653;SDS011;30790;52.030;7.110;2023-02-01T08:53:28;6.93;;;2.13;;
41653;SDS011;30790;52.030;7.110;2023-02-01T08:55:53;11.63;;;2.30;;
41653;SDS011;30790;52.030;7.110;2023-02-01T08:58:19;11.93;;;2.43;;
41653;SDS011;30790;52.030;7.110;2023-02-01T09:00:44;11.32;;;2.22;;
41653;SDS011;30790;52.030;7.110;2023-02-01T09:03:10;10.32;;;1.83;;
41653;SDS011;30790;52.030;7.110;2023-02-01T09:05:37;9.98;;;2.03;;
41653;SDS011;30790;52.030;7.110;2023-02-01T09:08:03;6.45;;;1.75;;
41653;SDS011;30790;52.030;7.110;2023-02-01T09:10:29;9.80;;;1.77;;
41653;SDS011;30790;52.030;7.110;2023-02-01T09:12:54;36.95;;;3.10;;
41653;SDS011;30790;52.030;7.110;2023-02-01T09:15:20;7.50;;;2.10;;
41653;SDS011;30790;52.030;7.110;2023-02-01T09:17:45;11.07;;;2.30;;
41653;SDS011;30790;52.030;7.110;2023-02-01T09:20:10;13.75;;;3.20;;
41653;SDS011;30790;52.030;7.110;2023-02-01T09:22:36;14.60;;;4.53;;
41653;SDS011;30790;52.030;7.110;2023-02-01T09:25:01;15.93;;;4.78;;
41653;SDS011;30790;52.030;7.110;2023-02-01T09:27:26;19.38;;;4.10;;
41653;SDS011;30790;52.030;7.110;2023-02-01T09:29:52;17.80;;;4.85;;
41653;SDS011;30790;52.030;7.110;2023-02-01T09:32:21;13.63;;;4.72;;
41653;SDS011;30790;52.030;7.110;2023-02-01T09:34:47;19.95;;;4.90;;
41653;SDS011;30790;52.030;7.110;2023-02-01T09:37:12;20.27;;;4.50;;
41653;SDS011;30790;52.030;7.110;2023-02-01T09:39:38;22.00;;;4.50;;
41653;SDS011;30790;52.030;7.110;2023-02-01T09:45:17;16.42;;;3.70;;
41653;SDS011;30790;52.030;7.110;2023-02-01T09:48:10;11.30;;;2.70;;
41653;SDS011;30790;52.030;7.110;2023-02-01T09:50:41;12.50;;;3.10;;
41653;SDS011;30790;52.030;7.110;2023-02-01T09:53:20;15.30;;;3.53;;
41653;SDS011;30790;52.030;7.110;2023-02-01T09:55:48;16.85;;;3.50;;
41653;SDS011;30790;52.030;7.110;2023-02-01T09:58:23;13.27;;;3.08;;
41653;SDS011;30790;52.030;7.110;2023-02-01T10:00:57;16.77;;;3.65;;
41653;SDS011;30790;52.030;7.110;2023-02-01T10:03:24;14.98;;;3.08;;
41653;SDS011;30790;52.030;7.110;2023-02-01T10:22:41;9.90;;;2.65;;
41653;SDS011;30790;52.030;7.110;2023-02-01T10:25:53;9.70;;;2.67;;
41653;SDS011;30790;52.030;7.110;2023-02-01T10:27:59;8.00;;;2.20;;
41653;SDS011;30790;52.030;7.110;2023-02-01T10:30:30;10.25;;;3.00;;
41653;SDS011;30790;52.030;7.110;2023-02-01T10:33:14;6.70;;;1.85;;
41653;SDS011;30790;52.030;7.110;2023-02-01T10:35:40;12.27;;;2.83;;
41653;SDS011;30790;52.030;7.110;2023-02-01T10:38:16;10.43;;;2.45;;
41653;SDS011;30790;52.030;7.110;2023-02-01T10:40:42;14.13;;;2.88;;
41653;SDS011;30790;52.030;7.110;2023-02-01T10:43:07;15.48;;;2.58;;
41653;SDS011;30790;52.030;7.110;2023-02-01T10:45:34;7.13;;;2.20;;
41653;SDS011;30790;52.030;7.110;2023-02-01T10:48:00;12.90;;;2.60;;
41653;SDS011;30790;52.030;7.110;2023-02-01T10:50:33;8.80;;;2.70;;
41653;SDS011;30790;52.030;7.110;2023-02-01T10:53:05;11.70;;;2.88;;
41653;SDS011;30790;52.030;7.110;2023-02-01T11:06:29;15.23;;;2.60;;
41653;SDS011;30790;52.030;7.110;2023-02-01T11:11:30;7.53;;;1.77;;
41653;SDS011;30790;52.030;7.110;2023-02-01T11:16:28;12.40;;;2.50;;
41653;SDS011;30790;52.030;7.110;2023-02-01T11:18:59;13.40;;;2.80;;
41653;SDS011;30790;52.030;7.110;2023-02-01T11:21:25;9.05;;;2.10;;
41653;SDS011;30790;52.030;7.110;2023-02-01T11:23:51;7.00;;;2.15;;
41653;SDS011;30790;52.030;7.110;2023-02-01T11:26:21;7.70;;;2.53;;
41653;SDS011;30790;52.030;7.110;2023-02-01T11:29:04;6.68;;;2.15;;
41653;SDS011;30790;52.030;7.110;2023-02-01T11:31:35;8.95;;;2.22;;
41653;SDS011;30790;52.030;7.110;2023-02-01T11:34:14;13.20;;;2.60;;
41653;SDS011;30790;52.030;7.110;2023-02-01T11:36:42;7.20;;;2.03;;
41653;SDS011;30790;52.030;7.110;2023-02-01T11:39:23;6.93;;;2.40;;
41653;SDS011;30790;52.030;7.110;2023-02-01T11:44:38;9.00;;;2.50;;
41653;SDS011;30790;52.030;7.110;2023-02-01T11:47:16;8.60;;;2.65;;
41653;SDS011;30790;52.030;7.110;2023-02-01T11:49:42;5.85;;;2.38;;
41653;SDS011;30790;52.030;7.110;2023-02-01T12:12:08;6.97;;;2.05;;
41653;SDS011;30790;52.030;7.110;2023-02-01T12:23:34;11.70;;;2.80;;
41653;SDS011;30790;52.030;7.110;2023-02-01T12:34:59;13.82;;;2.88;;
41653;SDS011;30790;52.030;7.110;2023-02-01T12:42:48;9.38;;;2.45;;
41653;SDS011;30790;52.030;7.110;2023-02-01T12:45:27;10.05;;;2.33;;
41653;SDS011;30790;52.030;7.110;2023-02-01T12:50:56;10.07;;;2.60;;
41653;SDS011;30790;52.030;7.110;2023-02-01T12:53:30;14.05;;;2.78;;
41653;SDS011;30790;52.030;7.110;2023-02-01T12:56:09;7.47;;;2.45;;
41653;SDS011;30790;52.030;7.110;2023-02-01T12:58:45;6.93;;;2.05;;
41653;SDS011;30790;52.030;7.110;2023-02-01T13:01:18;8.93;;;2.35;;
41653;SDS011;30790;52.030;7.110;2023-02-01T13:03:52;10.68;;;2.35;;
41653;SDS011;30790;52.030;7.110;2023-02-01T13:06:29;9.13;;;2.60;;
41653;SDS011;30790;52.030;7.110;2023-02-01T13:09:09;11.38;;;2.28;;
41653;SDS011;30790;52.030;7.110;2023-02-01T13:11:45;5.80;;;2.45;;
41653;SDS011;30790;52.030;7.110;2023-02-01T13:14:19;5.95;;;2.40;;
41653;SDS011;30790;52.030;7.110;2023-02-01T13:17:04;8.20;;;2.38;;
41653;SDS011;30790;52.030;7.110;2023-02-01T13:22:40;11.48;;;2.55;;
41653;SDS011;30790;52.030;7.110;2023-02-01T13:25:15;7.10;;;2.63;;
41653;SDS011;30790;52.030;7.110;2023-02-01T13:27:53;11.30;;;2.13;;
41653;SDS011;30790;52.030;7.110;2023-02-01T13:30:22;9.02;;;2.70;;
41653;SDS011;30790;52.030;7.110;2023-02-01T13:35:45;14.65;;;2.78;;
41653;SDS011;30790;52.030;7.110;2023-02-01T13:44:05;17.05;;;2.95;;
41653;SDS011;30790;52.030;7.110;2023-02-01T13:46:38;12.20;;;2.72;;
41653;SDS011;30790;52.030;7.110;2023-02-01T13:49:06;9.90;;;2.50;;
41653;SDS011;30790;52.030;7.110;2023-02-01T13:51:42;7.43;;;1.95;;
41653;SDS011;30790;52.030;7.110;2023-02-01T13:54:24;11.60;;;2.72;;
41653;SDS011;30790;52.030;7.110;2023-02-01T13:56:52;9.38;;;2.17;;
41653;SDS011;30790;52.030;7.110;2023-02-01T14:05:02;9.07;;;3.15;;
41653;SDS011;30790;52.030;7.110;2023-02-01T14:07:28;13.43;;;3.40;;
41653;SDS011;30790;52.030;7.110;2023-02-01T14:09:53;19.88;;;4.00;;
41653;SDS011;30790;52.030;7.110;2023-02-01T14:17:47;26.58;;;4.93;;
41653;SDS011;30790;52.030;7.110;2023-02-01T14:23:12;31.27;;;6.25;;
41653;SDS011;30790;52.030;7.110;2023-02-01T14:25:40;38.70;;;6.00;;
41653;SDS011;30790;52.030;7.110;2023-02-01T14:28:10;50.60;;;7.22;;
41653;SDS011;30790;52.030;7.110;2023-02-01T14:30:38;40.60;;;5.30;;
41653;SDS011;30790;52.030;7.110;2023-02-01T14:33:17;55.10;;;7.05;;
41653;SDS011;30790;52.030;7.110;2023-02-01T14:35:54;48.75;;;7.35;;
41653;SDS011;30790;52.030;7.110;2023-02-01T14:38:27;39.83;;;7.07;;
41653;SDS011;30790;52.030;7.110;2023-02-01T14:40:56;40.35;;;6.72;;
41653;SDS011;30790;52.030;7.110;2023-02-01T14:43:49;69.82;;;10.35;;
41653;SDS011;30790;52.030;7.110;2023-02-01T14:46:16;68.97;;;9.35;;
41653;SDS011;30790;52.030;7.110;2023-02-01T14:48:43;60.63;;;8.50;;
41653;SDS011;30790;52.030;7.110;2023-02-01T14:51:11;58.72;;;7.90;;
41653;SDS011;30790;52.030;7.110;2023-02-01T14:53:39;63.20;;;8.50;;
41653;SDS011;30790;52.030;7.110;2023-02-01T14:56:08;53.38;;;7.75;;
41653;SDS011;30790;52.030;7.110;2023-02-01T15:01:36;82.57;;;9.77;;
41653;SDS011;30790;52.030;7.110;2023-02-01T15:04:05;78.13;;;10.45;;
41653;SDS011;30790;52.030;7.110;2023-02-01T15:06:41;75.47;;;10.32;;
41653;SDS011;30790;52.030;7.110;2023-02-01T15:14:22;58.55;;;9.65;;
41653;SDS011;30790;52.030;7.110;2023-02-01T15:16:47;60.90;;;9.55;;
41653;SDS011;30790;52.030;7.110;2023-02-01T15:19:18;59.92;;;9.07;;
41653;SDS011;30790;52.030;7.110;2023-02-01T15:21:49;58.00;;;9.85;;
41653;SDS011;30790;52.030;7.110;2023-02-01T15:24:24;51.22;;;8.52;;
41653;SDS011;30790;52.030;7.110;2023-02-01T15:26:52;61.13;;;8.60;;
41653;SDS011;30790;52.030;7.110;2023-02-01T15:29:19;52.22;;;6.95;;
41653;SDS011;30790;52.030;7.110;2023-02-01T15:31:47;46.60;;;7.72;;
41653;SDS011;30790;52.030;7.110;2023-02-01T15:34:14;63.65;;;7.60;;
41653;SDS011;30790;52.030;7.110;2023-02-01T15:36:40;40.28;;;7.10;;
41653;SDS011;30790;52.030;7.110;2023-02-01T15:39:18;39.33;;;6.80;;
41653;SDS011;30790;52.030;7.110;2023-02-01T15:42:00;52.55;;;7.93;;
41653;SDS011;30790;52.030;7.110;2023-02-01T15:44:37;55.92;;;8.30;;
41653;SDS011;30790;52.030;7.110;2023-02-01T15:47:17;57.13;;;8.52;;
41653;SDS011;30790;52.030;7.110;2023-02-01T15:49:46;51.95;;;8.65;;
41653;SDS011;30790;52.030;7.110;2023-02-01T15:52:26;49.63;;;8.43;;
41653;SDS011;30790;52.030;7.110;2023-02-01T15:55:00;58.50;;;8.50;;
41653;SDS011;30790;52.030;7.110;2023-02-01T15:57:33;53.53;;;8.82;;
41653;SDS011;30790;52.030;7.110;2023-02-01T16:00:05;63.67;;;9.35;;
41653;SDS011;30790;52.030;7.110;2023-02-01T16:05:04;64.13;;;9.15;;
41653;SDS011;30790;52.030;7.110;2023-02-01T16:07:32;47.28;;;7.80;;
41653;SDS011;30790;52.030;7.110;2023-02-01T16:10:02;64.47;;;8.73;;
41653;SDS011;30790;52.030;7.110;2023-02-01T16:12:53;61.85;;;8.57;;
41653;SDS011;30790;52.030;7.110;2023-02-01T16:15:23;58.42;;;8.73;;
41653;SDS011;30790;52.030;7.110;2023-02-01T16:17:48;70.32;;;9.27;;
41653;SDS011;30790;52.030;7.110;2023-02-01T16:20:14;60.17;;;9.17;;
41653;SDS011;30790;52.030;7.110;2023-02-01T16:22:39;48.15;;;7.95;;
41653;SDS011;30790;52.030;7.110;2023-02-01T16:25:04;65.60;;;8.97;;
41653;SDS011;30790;52.030;7.110;2023-02-01T16:27:30;71.65;;;9.25;;
41653;SDS011;30790;52.030;7.110;2023-02-01T16:29:55;44.33;;;8.35;;
41653;SDS011;30790;52.030;7.110;2023-02-01T16:32:21;42.53;;;8.65;;
41653;SDS011;30790;52.030;7.110;2023-02-01T16:34:47;45.13;;;7.43;;
41653;SDS011;30790;52.030;7.110;2023-02-01T16:37:13;52.30;;;8.93;;
41653;SDS011;30790;52.030;7.110;2023-02-01T16:39:43;59.95;;;9.18;;
41653;SDS011;30790;52.030;7.110;2023-02-01T16:42:12;40.65;;;7.68;;
41653;SDS011;30790;52.030;7.110;2023-02-01T16:44:39;45.28;;;7.32;;
41653;SDS011;30790;52.030;7.110;2023-02-01T16:47:26;49.58;;;7.72;;
41653;SDS011;30790;52.030;7.110;2023-02-01T16:52:20;37.40;;;6.65;;
41653;SDS011;30790;52.030;7.110;2023-02-01T16:54:47;44.55;;;6.80;;
41653;SDS011;30790;52.030;7.110;2023-02-01T16:57:13;32.97;;;6.60;;
41653;SDS011;30790;52.030;7.110;2023-02-01T16:59:41;47.55;;;7.80;;
41653;SDS011;30790;52.030;7.110;2023-02-01T17:02:10;37.25;;;7.47;;
41653;SDS011;30790;52.030;7.110;2023-02-01T17:04:36;31.13;;;6.38;;
41653;SDS011;30790;52.030;7.110;2023-02-01T17:07:02;56.33;;;8.85;;
41653;SDS011;30790;52.030;7.110;2023-02-01T17:09:34;40.45;;;7.18;;
41653;SDS011;30790;52.030;7.110;2023-02-01T17:12:01;65.40;;;8.68;;
41653;SDS011;30790;52.030;7.110;2023-02-01T17:14:29;46.72;;;7.65;;
41653;SDS011;30790;52.030;7.110;2023-02-01T17:20:19;44.38;;;6.97;;
41653;SDS011;30790;52.030;7.110;2023-02-01T17:22:46;48.53;;;8.13;;
41653;SDS011;30790;52.030;7.110;2023-02-01T17:25:20;49.80;;;8.70;;
41653;SDS011;30790;52.030;7.110;2023-02-01T17:27:46;56.13;;;7.43;;